Time;durP1;ratioP1;P1;durP2;ratioP2;P2;SDS_P1;SDS_P2;PMS_P1;PMS_P2;Temp;Humidity;BMP_temperature;BMP_pressure;BME280_temperature;BME280_humidity;BME280_pressure;Samples;Min_cycle;Max_cycle;Signal;HPM_P1;HPM_P2
2021/08/15 00:02:12;;;;;;;10.35;3.78;;;;;;;;;;5074474;28;20028;-73
2021/08/15 00:04:38;;;;;;;12.55;4.53;;;;;;;;;;5075252;28;20025;-73
2021/08/15 00:07:07;;;;;;;13.73;4.40;;;;;;;;;;5056870;28;20077;-73
2021/08/15 00:09:33;;;;;;;10.15;4.60;;;;;;;;;;5075344;28;20025;-74
2021/08/15 00:11:59;;;;;;;8.30;3.90;;;;;;;;;;5074182;28;20125;-73
2021/08/15 00:14:25;;;;;;;10.68;4.30;;;;;;;;;;5074912;28;20103;-74
2021/08/15 00:16:51;;;;;;;5.57;3.95;;;;;;;;;;5074739;28;20025;-73
2021/08/15 00:19:17;;;;;;;10.95;4.65;;;;;;;;;;5074500;28;20074;-74
2021/08/15 00:21:43;;;;;;;6.47;4.47;;;;;;;;;;5074367;28;20491;-74
2021/08/15 00:24:13;;;;;;;7.97;4.50;;;;;;;;;;5056908;28;20025;-74
2021/08/15 00:26:39;;;;;;;9.48;4.95;;;;;;;;;;5074662;28;20090;-74
2021/08/15 00:29:08;;;;;;;9.48;4.63;;;;;;;;;;5056290;28;20499;-74
2021/08/15 00:31:34;;;;;;;10.27;4.38;;;;;;;;;;5074023;28;20028;-74
2021/08/15 00:34:01;;;;;;;11.93;4.43;;;;;;;;;;5074531;28;20073;-74
2021/08/15 00:36:27;;;;;;;6.32;4.50;;;;;;;;;;5074825;28;20016;-74
2021/08/15 00:38:53;;;;;;;9.02;4.63;;;;;;;;;;5074067;28;20025;-74
2021/08/15 00:41:19;;;;;;;7.95;4.20;;;;;;;;;;5073912;28;20032;-74
2021/08/15 00:43:45;;;;;;;7.55;4.45;;;;;;;;;;5074022;28;20522;-74
2021/08/15 00:46:12;;;;;;;10.05;4.82;;;;;;;;;;5074078;28;20083;-74
2021/08/15 00:48:38;;;;;;;12.23;4.70;;;;;;;;;;5073765;28;20037;-75
2021/08/15 00:51:04;;;;;;;8.90;4.53;;;;;;;;;;5073587;28;20115;-75
2021/08/15 00:53:37;;;;;;;7.95;4.28;;;;;;;;;;5055904;28;20020;-74
2021/08/15 00:56:05;;;;;;;9.45;4.72;;;;;;;;;;5073784;28;20119;-74
2021/08/15 00:58:32;;;;;;;6.95;4.38;;;;;;;;;;5073717;28;20502;-74
2021/08/15 01:01:02;;;;;;;7.28;4.45;;;;;;;;;;5055756;28;20040;-74
2021/08/15 01:03:29;;;;;;;6.13;5.03;;;;;;;;;;5073840;28;20438;-74
2021/08/15 01:05:55;;;;;;;14.13;4.65;;;;;;;;;;5070913;28;20104;-74
2021/08/15 01:08:22;;;;;;;7.95;3.97;;;;;;;;;;5073772;28;20123;-74
2021/08/15 01:10:51;;;;;;;7.35;4.55;;;;;;;;;;5073586;28;20028;-74
2021/08/15 01:13:17;;;;;;;7.85;4.78;;;;;;;;;;5073664;28;20013;-74
2021/08/15 01:15:43;;;;;;;10.80;4.38;;;;;;;;;;5055510;28;20411;-74
2021/08/15 01:18:23;;;;;;;7.32;4.00;;;;;;;;;;5073629;28;20024;-75
2021/08/15 01:21:19;;;;;;;5.90;4.60;;;;;;;;;;5073709;28;20039;-75
2021/08/15 01:23:46;;;;;;;7.07;4.90;;;;;;;;;;5023286;28;20032;-74
2021/08/15 01:26:19;;;;;;;9.43;4.85;;;;;;;;;;5053516;28;20032;-75
2021/08/15 01:28:45;;;;;;;7.25;4.97;;;;;;;;;;5071236;28;20029;-74
2021/08/15 01:31:12;;;;;;;8.05;4.78;;;;;;;;;;5072251;28;20438;-74
2021/08/15 01:33:42;;;;;;;7.65;4.40;;;;;;;;;;5073235;28;20395;-74
2021/08/15 01:36:09;;;;;;;9.20;4.70;;;;;;;;;;5073201;28;20020;-74
2021/08/15 01:38:36;;;;;;;8.25;5.00;;;;;;;;;;5073231;28;20545;-74
2021/08/15 01:41:03;;;;;;;5.75;4.82;;;;;;;;;;5072776;28;20036;-74
2021/08/15 01:43:30;;;;;;;8.05;4.47;;;;;;;;;;5073078;28;20091;-74
2021/08/15 01:45:56;;;;;;;5.35;4.78;;;;;;;;;;5073333;28;20054;-74
2021/08/15 01:48:23;;;;;;;8.07;4.65;;;;;;;;;;5072741;28;20415;-74
2021/08/15 01:50:49;;;;;;;8.60;4.35;;;;;;;;;;5072614;28;20089;-74
2021/08/15 01:53:17;;;;;;;8.15;5.22;;;;;;;;;;5055070;28;20028;-74
2021/08/15 01:55:43;;;;;;;9.23;4.88;;;;;;;;;;5072983;28;20036;-74
2021/08/15 01:58:10;;;;;;;6.22;4.13;;;;;;;;;;5054600;28;20449;-74
2021/08/15 02:00:37;;;;;;;8.98;4.75;;;;;;;;;;5054953;28;20503;-74
2021/08/15 02:03:04;;;;;;;11.23;5.00;;;;;;;;;;5072866;28;20057;-74
2021/08/15 02:05:30;;;;;;;14.50;5.32;;;;;;;;;;5072723;28;20380;-74
2021/08/15 02:07:56;;;;;;;11.23;5.03;;;;;;;;;;5072660;28;20495;-76
2021/08/15 02:10:26;;;;;;;8.05;5.32;;;;;;;;;;5072353;28;20025;-76
2021/08/15 02:12:52;;;;;;;9.40;6.45;;;;;;;;;;5072534;28;20021;-76
2021/08/15 02:15:19;;;;;;;9.98;6.07;;;;;;;;;;5072594;28;20410;-76
2021/08/15 02:17:46;;;;;;;9.40;5.80;;;;;;;;;;5072635;28;20016;-76
2021/08/15 02:20:13;;;;;;;6.55;5.53;;;;;;;;;;5072453;28;20025;-76
2021/08/15 02:22:39;;;;;;;10.18;5.38;;;;;;;;;;5054294;28;20141;-76
2021/08/15 02:25:07;;;;;;;9.65;5.85;;;;;;;;;;5054288;28;20406;-76
2021/08/15 02:27:33;;;;;;;6.70;5.10;;;;;;;;;;5072458;28;20039;-76
2021/08/15 02:29:59;;;;;;;9.52;5.07;;;;;;;;;;5072523;28;20057;-76
2021/08/15 02:32:25;;;;;;;7.72;4.68;;;;;;;;;;5071875;28;20016;-76
2021/08/15 02:34:51;;;;;;;6.85;4.80;;;;;;;;;;5072469;28;20536;-76
2021/08/15 02:37:18;;;;;;;8.50;5.05;;;;;;;;;;5054207;28;20398;-76
2021/08/15 02:39:44;;;;;;;10.23;4.45;;;;;;;;;;5054353;28;20510;-76
2021/08/15 02:42:10;;;;;;;7.95;4.57;;;;;;;;;;5073232;28;20028;-76
2021/08/15 02:44:36;;;;;;;5.95;4.47;;;;;;;;;;5058330;28;20033;-76
2021/08/15 02:47:03;;;;;;;5.72;4.15;;;;;;;;;;5076175;28;20040;-76
2021/08/15 02:49:29;;;;;;;5.40;4.32;;;;;;;;;;5076321;28;20060;-76
2021/08/15 02:51:55;;;;;;;6.70;4.13;;;;;;;;;;5075941;28;20025;-76
2021/08/15 02:54:21;;;;;;;5.10;4.25;;;;;;;;;;5076308;28;20028;-76
2021/08/15 02:56:47;;;;;;;8.85;4.07;;;;;;;;;;5058349;28;20048;-76
2021/08/15 02:59:13;;;;;;;7.15;4.32;;;;;;;;;;5076091;28;20483;-76
2021/08/15 03:01:39;;;;;;;10.32;4.65;;;;;;;;;;5075694;28;20447;-76
2021/08/15 03:04:05;;;;;;;12.15;4.72;;;;;;;;;;5076214;28;20036;-76
2021/08/15 03:06:31;;;;;;;5.18;4.28;;;;;;;;;;5076000;28;20123;-76
2021/08/15 03:08:57;;;;;;;6.70;3.97;;;;;;;;;;5058499;28;20036;-76
2021/08/15 03:11:23;;;;;;;7.65;4.20;;;;;;;;;;5057181;28;20029;-76
2021/08/15 03:13:49;;;;;;;6.40;3.95;;;;;;;;;;5075889;28;20025;-77
2021/08/15 03:16:15;;;;;;;5.82;3.85;;;;;;;;;;5075769;28;20066;-77
2021/08/15 03:18:43;;;;;;;5.15;3.55;;;;;;;;;;5075795;28;20017;-76
2021/08/15 03:21:09;;;;;;;5.60;3.50;;;;;;;;;;5057365;28;20507;-76
2021/08/15 03:23:35;;;;;;;7.35;4.03;;;;;;;;;;5057613;28;20036;-76
2021/08/15 03:26:01;;;;;;;6.68;4.07;;;;;;;;;;5057556;28;20127;-76
2021/08/15 03:28:27;;;;;;;7.70;3.90;;;;;;;;;;5075250;28;20036;-76
2021/08/15 03:30:53;;;;;;;6.15;3.88;;;;;;;;;;5075649;28;20419;-76
2021/08/15 03:33:19;;;;;;;4.07;3.47;;;;;;;;;;5075604;28;20067;-76
2021/08/15 03:35:45;;;;;;;8.82;4.10;;;;;;;;;;5075337;28;20028;-76
2021/08/15 03:38:11;;;;;;;7.22;3.92;;;;;;;;;;5075450;28;20077;-76
2021/08/15 03:40:37;;;;;;;5.80;4.00;;;;;;;;;;5057411;28;20029;-76
2021/08/15 03:43:03;;;;;;;5.25;3.78;;;;;;;;;;5075254;28;20029;-76
2021/08/15 03:45:29;;;;;;;6.90;3.90;;;;;;;;;;5057360;28;20025;-76
2021/08/15 03:47:55;;;;;;;7.03;3.40;;;;;;;;;;5075103;28;20486;-76
2021/08/15 03:50:22;;;;;;;9.90;3.78;;;;;;;;;;5075123;28;20028;-76
2021/08/15 03:52:48;;;;;;;10.38;3.45;;;;;;;;;;5074814;28;20021;-76
2021/08/15 03:55:15;;;;;;;10.00;3.95;;;;;;;;;;5075157;28;20023;-77
2021/08/15 03:57:42;;;;;;;5.15;3.90;;;;;;;;;;5075085;28;20104;-76
2021/08/15 04:00:08;;;;;;;7.28;3.67;;;;;;;;;;5057117;28;20108;-76
2021/08/15 04:02:35;;;;;;;6.03;3.45;;;;;;;;;;5057312;28;20399;-76
2021/08/15 04:05:01;;;;;;;6.90;3.90;;;;;;;;;;5057331;28;20491;-76
2021/08/15 04:07:27;;;;;;;5.32;3.67;;;;;;;;;;5074682;28;20479;-76
2021/08/15 04:09:53;;;;;;;6.03;3.63;;;;;;;;;;5056853;28;20060;-76
2021/08/15 04:12:19;;;;;;;4.47;3.60;;;;;;;;;;5073934;28;20036;-77
2021/08/15 04:14:45;;;;;;;8.77;4.07;;;;;;;;;;5056635;28;20012;-76
2021/08/15 04:17:11;;;;;;;6.35;3.78;;;;;;;;;;5074521;28;20074;-77
2021/08/15 04:19:37;;;;;;;7.07;4.15;;;;;;;;;;5074678;28;20024;-76
2021/08/15 04:22:03;;;;;;;5.40;3.65;;;;;;;;;;5073911;28;20115;-76
2021/08/15 04:24:29;;;;;;;4.85;4.20;;;;;;;;;;5074391;28;20039;-76
2021/08/15 04:26:55;;;;;;;6.75;4.22;;;;;;;;;;5074323;28;20111;-76
2021/08/15 04:29:21;;;;;;;10.05;4.53;;;;;;;;;;5074467;28;20025;-76
2021/08/15 04:31:48;;;;;;;6.50;4.30;;;;;;;;;;5073781;28;20028;-76
2021/08/15 04:34:14;;;;;;;12.52;4.55;;;;;;;;;;5056411;28;20017;-77
2021/08/15 04:36:40;;;;;;;6.10;3.95;;;;;;;;;;5056357;28;20030;-76
2021/08/15 04:39:06;;;;;;;7.07;4.15;;;;;;;;;;5074312;28;20021;-76
2021/08/15 04:41:32;;;;;;;6.50;4.25;;;;;;;;;;5055700;28;20032;-77
2021/08/15 04:43:58;;;;;;;7.38;4.13;;;;;;;;;;5056356;28;20072;-76
2021/08/15 04:46:24;;;;;;;5.07;4.03;;;;;;;;;;5073715;28;20026;-76
2021/08/15 04:48:50;;;;;;;7.65;4.35;;;;;;;;;;5074423;28;20029;-76
2021/08/15 04:51:16;;;;;;;4.50;3.97;;;;;;;;;;5073542;28;20032;-77
2021/08/15 04:53:42;;;;;;;7.45;3.92;;;;;;;;;;5074059;28;20017;-76
2021/08/15 04:56:08;;;;;;;7.15;4.30;;;;;;;;;;5074231;28;20040;-76
2021/08/15 04:58:36;;;;;;;10.20;4.63;;;;;;;;;;5073659;28;20028;-76
2021/08/15 05:01:03;;;;;;;11.32;4.30;;;;;;;;;;5073495;28;20157;-76
2021/08/15 05:03:29;;;;;;;6.88;3.78;;;;;;;;;;5074098;28;20390;-76
2021/08/15 05:05:55;;;;;;;6.70;4.00;;;;;;;;;;5073134;28;20036;-76
2021/08/15 05:08:21;;;;;;;6.45;3.83;;;;;;;;;;5073652;28;20495;-76
2021/08/15 05:10:47;;;;;;;5.75;4.20;;;;;;;;;;5073129;28;20028;-77
2021/08/15 05:13:13;;;;;;;7.47;4.18;;;;;;;;;;5073348;28;20020;-76
2021/08/15 05:15:39;;;;;;;5.60;4.10;;;;;;;;;;5073384;28;20032;-76
2021/08/15 05:18:06;;;;;;;8.70;3.95;;;;;;;;;;5073401;28;20032;-77
2021/08/15 05:20:32;;;;;;;11.57;4.55;;;;;;;;;;5073364;28;20048;-76
2021/08/15 05:22:58;;;;;;;5.43;4.10;;;;;;;;;;5073351;28;20503;-76
2021/08/15 05:25:25;;;;;;;8.40;4.00;;;;;;;;;;5055480;28;20028;-76
2021/08/15 05:27:51;;;;;;;7.00;3.88;;;;;;;;;;5073134;28;20035;-76
2021/08/15 05:30:17;;;;;;;6.75;4.40;;;;;;;;;;5073264;28;20028;-76
2021/08/15 05:32:43;;;;;;;11.98;4.60;;;;;;;;;;5055948;28;20099;-76
2021/08/15 05:35:10;;;;;;;8.05;4.15;;;;;;;;;;5055183;28;20036;-76
2021/08/15 05:37:38;;;;;;;7.28;4.18;;;;;;;;;;5055190;28;20078;-76
2021/08/15 05:40:05;;;;;;;8.25;4.57;;;;;;;;;;5073444;28;20043;-76
2021/08/15 05:42:31;;;;;;;8.60;4.55;;;;;;;;;;5073084;28;20032;-76
2021/08/15 05:44:57;;;;;;;6.15;4.35;;;;;;;;;;5072839;28;20021;-76
2021/08/15 05:47:23;;;;;;;12.43;4.38;;;;;;;;;;5054627;28;20143;-76
2021/08/15 05:49:49;;;;;;;7.50;3.85;;;;;;;;;;5072758;28;20024;-76
2021/08/15 05:52:16;;;;;;;13.73;4.07;;;;;;;;;;5072243;28;20140;-76
2021/08/15 05:54:42;;;;;;;8.57;4.95;;;;;;;;;;5072961;28;20020;-76
2021/08/15 05:57:09;;;;;;;8.48;4.63;;;;;;;;;;5072763;28;20025;-76
2021/08/15 05:59:35;;;;;;;8.20;4.45;;;;;;;;;;5072584;28;20013;-76
2021/08/15 06:02:01;;;;;;;8.95;4.50;;;;;;;;;;5072304;28;20034;-76
2021/08/15 06:04:28;;;;;;;11.95;4.85;;;;;;;;;;5054607;28;20024;-77
2021/08/15 06:06:54;;;;;;;9.38;4.70;;;;;;;;;;5072799;28;20078;-76
2021/08/15 06:09:20;;;;;;;8.15;5.57;;;;;;;;;;5072496;28;20035;-76
2021/08/15 06:11:46;;;;;;;8.70;4.45;;;;;;;;;;5054154;28;20033;-76
2021/08/15 06:14:14;;;;;;;12.52;4.85;;;;;;;;;;5072264;28;20025;-76
2021/08/15 06:16:40;;;;;;;8.88;5.35;;;;;;;;;;5054263;28;20029;-77
2021/08/15 06:19:06;;;;;;;13.98;5.20;;;;;;;;;;5072320;28;20024;-77
2021/08/15 06:21:32;;;;;;;15.50;4.85;;;;;;;;;;5072031;28;20507;-77
2021/08/15 06:23:58;;;;;;;10.38;5.15;;;;;;;;;;5072484;28;20025;-76
2021/08/15 06:26:25;;;;;;;8.32;4.90;;;;;;;;;;5072290;28;20024;-76
2021/08/15 06:28:51;;;;;;;11.50;4.85;;;;;;;;;;5072532;28;20104;-76
2021/08/15 06:31:18;;;;;;;10.40;5.25;;;;;;;;;;5072064;28;20040;-76
2021/08/15 06:33:44;;;;;;;8.48;5.00;;;;;;;;;;5072246;28;20021;-76
2021/08/15 06:36:10;;;;;;;8.18;5.03;;;;;;;;;;5072116;28;20056;-76
2021/08/15 06:38:36;;;;;;;9.05;4.97;;;;;;;;;;5072439;28;20497;-76
2021/08/15 06:41:02;;;;;;;13.60;4.80;;;;;;;;;;5071804;28;20035;-76
2021/08/15 06:43:28;;;;;;;9.93;4.40;;;;;;;;;;5071588;28;20027;-76
2021/08/15 06:45:55;;;;;;;11.00;5.13;;;;;;;;;;5054373;28;20474;-76
2021/08/15 06:48:22;;;;;;;6.82;4.28;;;;;;;;;;5053928;28;20051;-76
2021/08/15 06:50:48;;;;;;;11.18;4.43;;;;;;;;;;5072435;28;20037;-76
2021/08/15 06:53:15;;;;;;;8.68;4.40;;;;;;;;;;5072051;28;20348;-76
2021/08/15 06:55:42;;;;;;;8.60;4.22;;;;;;;;;;5072285;28;20028;-76
2021/08/15 06:58:08;;;;;;;8.57;4.55;;;;;;;;;;5072212;28;20048;-76
2021/08/15 07:00:34;;;;;;;11.77;4.50;;;;;;;;;;5072551;28;20493;-76
2021/08/15 07:03:00;;;;;;;7.70;4.03;;;;;;;;;;5072398;28;20029;-76
2021/08/15 07:05:26;;;;;;;10.90;4.63;;;;;;;;;;5053093;28;20558;-77
2021/08/15 07:07:52;;;;;;;8.13;4.10;;;;;;;;;;5071063;28;20035;-76
2021/08/15 07:10:18;;;;;;;9.20;3.97;;;;;;;;;;5069997;28;20037;-76
2021/08/15 07:12:44;;;;;;;7.78;4.53;;;;;;;;;;5069361;28;20027;-77
2021/08/15 07:15:11;;;;;;;9.02;4.70;;;;;;;;;;5070483;28;20430;-76
2021/08/15 07:17:39;;;;;;;8.32;3.80;;;;;;;;;;5070443;28;20071;-76
2021/08/15 07:20:06;;;;;;;7.68;4.43;;;;;;;;;;5070303;28;20028;-77
2021/08/15 07:22:32;;;;;;;8.20;4.30;;;;;;;;;;5052482;28;20021;-76
2021/08/15 07:24:59;;;;;;;7.57;4.65;;;;;;;;;;5070359;28;20024;-76
2021/08/15 07:27:25;;;;;;;13.55;4.80;;;;;;;;;;5070124;28;20044;-76
2021/08/15 07:29:51;;;;;;;7.07;4.88;;;;;;;;;;5056038;28;20024;-76
2021/08/15 07:32:17;;;;;;;7.18;4.75;;;;;;;;;;5073422;28;20021;-76
2021/08/15 07:34:43;;;;;;;8.20;4.30;;;;;;;;;;5074355;28;20017;-76
2021/08/15 07:37:09;;;;;;;9.55;5.10;;;;;;;;;;5073810;28;20766;-76
2021/08/15 07:39:35;;;;;;;11.85;5.30;;;;;;;;;;5074196;28;20437;-76
2021/08/15 07:42:01;;;;;;;6.35;4.32;;;;;;;;;;5073384;28;20029;-76
2021/08/15 07:44:27;;;;;;;10.45;5.90;;;;;;;;;;5055577;28;20510;-76
2021/08/15 07:46:53;;;;;;;13.38;5.07;;;;;;;;;;5073320;28;20033;-76
2021/08/15 07:49:19;;;;;;;8.88;5.22;;;;;;;;;;5073640;28;20524;-76
2021/08/15 07:51:45;;;;;;;11.50;5.20;;;;;;;;;;5073337;28;20044;-76
2021/08/15 07:54:11;;;;;;;10.85;4.88;;;;;;;;;;5073699;28;20066;-76
2021/08/15 07:56:37;;;;;;;15.07;4.88;;;;;;;;;;5073880;28;20104;-76
2021/08/15 07:59:04;;;;;;;11.05;5.00;;;;;;;;;;5073139;28;20020;-76
2021/08/15 08:01:30;;;;;;;10.63;5.28;;;;;;;;;;5054773;28;20036;-76
2021/08/15 08:03:56;;;;;;;9.23;5.40;;;;;;;;;;5073580;28;20017;-76
2021/08/15 08:06:22;;;;;;;9.27;4.93;;;;;;;;;;5073184;28;20024;-77
2021/08/15 08:08:50;;;;;;;12.48;5.55;;;;;;;;;;5055450;28;20028;-76
2021/08/15 08:11:16;;;;;;;8.35;5.13;;;;;;;;;;5070100;28;20119;-76
2021/08/15 08:13:44;;;;;;;12.52;5.68;;;;;;;;;;5073111;28;20017;-75
2021/08/15 08:16:10;;;;;;;12.05;5.55;;;;;;;;;;5070596;28;20214;-76
2021/08/15 08:18:36;;;;;;;11.52;6.00;;;;;;;;;;5073547;28;20482;-76
2021/08/15 08:21:02;;;;;;;20.95;6.38;;;;;;;;;;5071795;28;20395;-76
2021/08/15 08:23:29;;;;;;;13.15;5.65;;;;;;;;;;5070683;28;20016;-76
2021/08/15 08:25:57;;;;;;;9.68;5.22;;;;;;;;;;5073093;28;20020;-76
2021/08/15 08:28:23;;;;;;;10.68;5.15;;;;;;;;;;5073465;28;20043;-76
2021/08/15 08:30:49;;;;;;;15.18;5.88;;;;;;;;;;5073460;28;20032;-76
2021/08/15 08:33:16;;;;;;;9.98;4.95;;;;;;;;;;5072978;28;20017;-76
2021/08/15 08:35:42;;;;;;;12.18;5.90;;;;;;;;;;5055522;28;20078;-76
2021/08/15 08:38:08;;;;;;;12.43;5.35;;;;;;;;;;5074169;28;20021;-76
2021/08/15 08:40:34;;;;;;;8.88;5.05;;;;;;;;;;5073059;28;20066;-76
2021/08/15 08:43:00;;;;;;;14.50;5.95;;;;;;;;;;5074058;28;20024;-76
2021/08/15 08:45:27;;;;;;;8.13;5.07;;;;;;;;;;5056072;28;20555;-75
2021/08/15 08:47:54;;;;;;;11.75;5.32;;;;;;;;;;5073833;28;20118;-76
2021/08/15 08:50:21;;;;;;;9.93;5.03;;;;;;;;;;5073737;28;20032;-76
2021/08/15 08:52:47;;;;;;;9.50;5.57;;;;;;;;;;5056076;28;20040;-76
2021/08/15 08:55:14;;;;;;;9.10;6.20;;;;;;;;;;5074227;28;20094;-76
2021/08/15 08:57:40;;;;;;;7.97;6.03;;;;;;;;;;5073684;28;20021;-76
2021/08/15 09:00:06;;;;;;;13.10;6.25;;;;;;;;;;5055948;28;20029;-76
2021/08/15 09:02:36;;;;;;;14.50;5.80;;;;;;;;;;5073578;28;20032;-76
2021/08/15 09:05:03;;;;;;;11.60;6.15;;;;;;;;;;5073872;28;20035;-76
2021/08/15 09:07:33;;;;;;;13.30;6.00;;;;;;;;;;5073389;28;20024;-76
2021/08/15 09:09:59;;;;;;;11.57;6.07;;;;;;;;;;5073378;28;20032;-76
2021/08/15 09:12:43;;;;;;;11.65;6.50;;;;;;;;;;5054684;28;20491;-76
2021/08/15 09:15:27;;;;;;;10.30;5.70;;;;;;;;;;5073053;28;20483;-77
2021/08/15 09:17:54;;;;;;;12.57;5.93;;;;;;;;;;5072342;28;20023;-76
2021/08/15 09:20:37;;;;;;;10.75;6.18;;;;;;;;;;5072554;28;20454;-76
2021/08/15 09:23:03;;;;;;;;;;;;;;;;;;5073793;28;20031;-76
2021/08/15 09:25:29;;;;;;;16.23;6.85;;;;;;;;;;5072810;28;19995;-76
2021/08/15 09:27:56;;;;;;;13.68;6.80;;;;;;;;;;5071757;28;20054;-76
2021/08/15 09:30:22;;;;;;;12.10;6.97;;;;;;;;;;5073587;28;20017;-76
2021/08/15 09:32:52;;;;;;;11.35;7.38;;;;;;;;;;5073043;28;20024;-76
2021/08/15 09:35:36;;;;;;;13.05;7.38;;;;;;;;;;5073106;28;20095;-76
2021/08/15 09:38:05;;;;;;;10.40;7.25;;;;;;;;;;5072820;28;20534;-76
2021/08/15 09:40:33;;;;;;;13.77;7.18;;;;;;;;;;5073539;28;20543;-76
2021/08/15 09:43:00;;;;;;;10.10;6.78;;;;;;;;;;5054810;28;20050;-76
2021/08/15 09:45:40;;;;;;;10.10;6.28;;;;;;;;;;5073259;28;20432;-76
2021/08/15 09:48:16;;;;;;;11.63;6.70;;;;;;;;;;5072626;28;20042;-76
2021/08/15 09:50:43;;;;;;;9.82;6.65;;;;;;;;;;5072861;28;20029;-76
2021/08/15 09:53:23;;;;;;;12.88;7.00;;;;;;;;;;5072802;28;20522;-76
2021/08/15 09:55:50;;;;;;;9.35;7.03;;;;;;;;;;5072923;28;20027;-76
2021/08/15 09:58:17;;;;;;;12.70;6.70;;;;;;;;;;5072966;28;20020;-76
2021/08/15 10:00:43;;;;;;;10.60;6.65;;;;;;;;;;5072856;28;20024;-76
2021/08/15 10:03:09;;;;;;;12.00;6.95;;;;;;;;;;5072369;28;20032;-76
2021/08/15 10:05:35;;;;;;;10.02;6.57;;;;;;;;;;5072603;28;20029;-76
2021/08/15 10:08:02;;;;;;;8.75;6.18;;;;;;;;;;5072671;28;20115;-76
2021/08/15 10:10:28;;;;;;;12.57;7.25;;;;;;;;;;5072316;28;20024;-76
2021/08/15 10:12:54;;;;;;;9.43;7.10;;;;;;;;;;5072382;28;20391;-76
2021/08/15 10:15:20;;;;;;;10.70;6.88;;;;;;;;;;5054581;28;20033;-76
2021/08/15 10:17:48;;;;;;;7.70;6.50;;;;;;;;;;5054427;28;20035;-76
2021/08/15 10:20:20;;;;;;;9.55;6.40;;;;;;;;;;5072641;28;20025;-76
2021/08/15 10:22:46;;;;;;;10.98;6.60;;;;;;;;;;5072599;28;20016;-76
2021/08/15 10:25:30;;;;;;;7.97;6.65;;;;;;;;;;5072256;28;20024;-76
2021/08/15 10:27:56;;;;;;;;;;;;;;;;;;5072695;28;20096;-76
2021/08/15 10:30:24;;;;;;;11.95;7.32;;;;;;;;;;5072263;28;19904;-76
2021/08/15 10:32:55;;;;;;;14.98;7.13;;;;;;;;;;5072267;28;20025;-76
2021/08/15 10:35:26;;;;;;;11.05;6.47;;;;;;;;;;5072455;28;20021;-76
2021/08/15 10:37:53;;;;;;;7.20;6.05;;;;;;;;;;5054008;28;20025;-76
2021/08/15 10:40:48;;;;;;;9.27;6.30;;;;;;;;;;5072148;28;20052;-76
2021/08/15 10:43:24;;;;;;;9.77;6.63;;;;;;;;;;5033656;28;20032;-76
2021/08/15 10:46:08;;;;;;;9.85;6.38;;;;;;;;;;5054247;28;20017;-76
2021/08/15 10:48:51;;;;;;;7.38;6.38;;;;;;;;;;5072087;28;20503;-76
2021/08/15 10:51:35;;;;;;;9.43;6.73;;;;;;;;;;5053502;28;20024;-76
2021/08/15 10:54:01;;;;;;;9.43;6.68;;;;;;;;;;5071975;28;20399;-76
2021/08/15 10:56:47;;;;;;;8.50;6.47;;;;;;;;;;5054420;28;20476;-76
2021/08/15 10:59:32;;;;;;;10.48;6.47;;;;;;;;;;5053683;28;20029;-76
2021/08/15 11:02:12;;;;;;;7.53;6.03;;;;;;;;;;5053683;28;20036;-76
2021/08/15 11:04:39;;;;;;;8.82;6.15;;;;;;;;;;5076072;28;20048;-76
2021/08/15 11:07:05;;;;;;;10.52;6.22;;;;;;;;;;5076185;28;20028;-76
2021/08/15 11:09:50;;;;;;;9.63;6.25;;;;;;;;;;5076405;28;20028;-76
2021/08/15 11:12:16;;;;;;;6.95;5.63;;;;;;;;;;5075492;28;20379;-76
2021/08/15 11:14:54;;;;;;;9.13;6.75;;;;;;;;;;5075986;28;20510;-76
2021/08/15 11:17:20;;;;;;;9.93;6.82;;;;;;;;;;5075900;28;20031;-76
2021/08/15 11:19:47;;;;;;;8.18;6.03;;;;;;;;;;5058006;28;20035;-76
2021/08/15 11:22:16;;;;;;;9.80;6.68;;;;;;;;;;5057439;28;20542;-76
2021/08/15 11:24:42;;;;;;;8.13;6.78;;;;;;;;;;5075932;28;20024;-76
2021/08/15 11:27:08;;;;;;;8.32;6.72;;;;;;;;;;5075900;28;20025;-76
2021/08/15 11:29:36;;;;;;;6.43;5.80;;;;;;;;;;5075726;28;20033;-76
2021/08/15 11:32:02;;;;;;;7.38;5.78;;;;;;;;;;5075103;28;20082;-76
2021/08/15 11:34:28;;;;;;;8.27;6.20;;;;;;;;;;5075212;28;20032;-76
2021/08/15 11:36:58;;;;;;;8.85;6.03;;;;;;;;;;5075540;28;20449;-76
2021/08/15 11:39:38;;;;;;;9.73;6.85;;;;;;;;;;5075303;28;20024;-76
2021/08/15 11:42:15;;;;;;;8.35;6.63;;;;;;;;;;5057071;28;20024;-76
2021/08/15 11:44:58;;;;;;;7.38;5.90;;;;;;;;;;5075072;28;20025;-76
2021/08/15 11:47:26;;;;;;;8.02;5.90;;;;;;;;;;5075247;28;20044;-76
2021/08/15 11:49:53;;;;;;;9.57;6.40;;;;;;;;;;5075046;28;20020;-76
2021/08/15 11:52:24;;;;;;;7.47;5.80;;;;;;;;;;5074546;28;20041;-76
2021/08/15 11:54:51;;;;;;;8.15;5.68;;;;;;;;;;5074870;28;20021;-76
2021/08/15 11:57:17;;;;;;;9.02;6.72;;;;;;;;;;5075221;28;20020;-76
2021/08/15 11:59:48;;;;;;;8.23;6.50;;;;;;;;;;5057048;28;20024;-76
2021/08/15 12:02:18;;;;;;;7.57;6.05;;;;;;;;;;5074634;28;20029;-76
2021/08/15 12:04:45;;;;;;;8.38;6.22;;;;;;;;;;5056935;28;20107;-76
2021/08/15 12:07:11;;;;;;;11.18;6.53;;;;;;;;;;5074747;28;20029;-76
2021/08/15 12:09:38;;;;;;;9.77;6.15;;;;;;;;;;5074657;28;20021;-76
2021/08/15 12:12:05;;;;;;;9.63;6.50;;;;;;;;;;5056384;28;20056;-76
2021/08/15 12:14:36;;;;;;;6.97;6.20;;;;;;;;;;5074146;28;20024;-76
2021/08/15 12:17:02;;;;;;;9.80;6.60;;;;;;;;;;5074961;28;20105;-76
2021/08/15 12:19:32;;;;;;;7.97;6.00;;;;;;;;;;5074619;28;20046;-76
2021/08/15 12:22:00;;;;;;;8.23;6.03;;;;;;;;;;5056252;28;20112;-76
2021/08/15 12:24:27;;;;;;;7.30;6.07;;;;;;;;;;5074862;28;20021;-76
2021/08/15 12:26:56;;;;;;;10.30;6.78;;;;;;;;;;5074427;28;20035;-76
2021/08/15 12:29:22;;;;;;;8.45;6.43;;;;;;;;;;5074586;28;20028;-76
2021/08/15 12:32:08;;;;;;;7.22;6.22;;;;;;;;;;5073955;28;20050;-76
2021/08/15 12:35:08;;;;;;;7.22;6.05;;;;;;;;;;5074546;28;20062;-76
2021/08/15 12:37:38;;;;;;;6.95;6.25;;;;;;;;;;5020612;28;20040;-76
2021/08/15 12:40:06;;;;;;;9.80;6.70;;;;;;;;;;5074451;28;20063;-76
2021/08/15 12:42:33;;;;;;;8.85;6.80;;;;;;;;;;5074319;28;20060;-76
2021/08/15 12:44:59;;;;;;;8.13;6.93;;;;;;;;;;5073863;28;20133;-76
2021/08/15 12:47:25;;;;;;;9.45;6.50;;;;;;;;;;5073935;28;20044;-76
2021/08/15 12:49:53;;;;;;;9.30;6.80;;;;;;;;;;5074075;28;20029;-76
2021/08/15 12:52:21;;;;;;;7.90;6.32;;;;;;;;;;5073500;28;20029;-76
2021/08/15 12:55:02;;;;;;;9.38;6.63;;;;;;;;;;5074085;28;20096;-76
2021/08/15 12:57:28;;;;;;;9.18;6.88;;;;;;;;;;5055976;28;20120;-76
2021/08/15 12:59:54;;;;;;;10.10;6.53;;;;;;;;;;5074017;28;20017;-76
2021/08/15 13:02:20;;;;;;;6.78;5.75;;;;;;;;;;5073445;28;20487;-76
2021/08/15 13:04:47;;;;;;;8.52;6.63;;;;;;;;;;5055696;28;20402;-76
2021/08/15 13:07:13;;;;;;;8.68;6.32;;;;;;;;;;5074139;28;20390;-76
2021/08/15 13:09:39;;;;;;;9.10;6.50;;;;;;;;;;5073902;28;20024;-76
2021/08/15 13:12:05;;;;;;;7.45;6.45;;;;;;;;;;5073093;28;20036;-76
2021/08/15 13:14:31;;;;;;;6.95;5.72;;;;;;;;;;5073429;28;20031;-76
2021/08/15 13:16:58;;;;;;;7.65;5.82;;;;;;;;;;5073774;28;20055;-76
2021/08/15 13:19:24;;;;;;;7.88;6.35;;;;;;;;;;5073929;28;20095;-76
2021/08/15 13:21:51;;;;;;;7.45;5.75;;;;;;;;;;5055053;28;20025;-76
2021/08/15 13:24:17;;;;;;;6.80;6.10;;;;;;;;;;5055698;28;20031;-76
2021/08/15 13:26:43;;;;;;;8.38;6.22;;;;;;;;;;5072391;28;20028;-76
2021/08/15 13:29:10;;;;;;;7.30;5.93;;;;;;;;;;5073598;28;20024;-76
2021/08/15 13:31:36;;;;;;;7.10;6.40;;;;;;;;;;5072664;28;20024;-76
2021/08/15 13:34:02;;;;;;;7.30;6.38;;;;;;;;;;5073466;28;20024;-77
2021/08/15 13:36:28;;;;;;;6.38;5.78;;;;;;;;;;5073374;28;20055;-76
2021/08/15 13:38:54;;;;;;;7.88;6.25;;;;;;;;;;5073283;28;20023;-76
2021/08/15 13:41:20;;;;;;;7.22;6.40;;;;;;;;;;5072589;28;20081;-76
2021/08/15 13:43:46;;;;;;;7.03;6.32;;;;;;;;;;5072827;28;20024;-76
2021/08/15 13:46:12;;;;;;;8.00;6.70;;;;;;;;;;5072801;28;20020;-76
2021/08/15 13:48:38;;;;;;;7.22;6.53;;;;;;;;;;5054624;28;20118;-76
2021/08/15 13:51:05;;;;;;;7.03;5.95;;;;;;;;;;5072426;28;20042;-76
2021/08/15 13:53:31;;;;;;;7.78;5.88;;;;;;;;;;5073068;28;20024;-76
2021/08/15 13:55:57;;;;;;;7.70;6.20;;;;;;;;;;5054822;28;20032;-76
2021/08/15 13:58:24;;;;;;;8.13;6.65;;;;;;;;;;5072865;28;20024;-76
2021/08/15 14:00:51;;;;;;;7.13;6.25;;;;;;;;;;5072205;28;20028;-76
2021/08/15 14:03:18;;;;;;;7.63;6.43;;;;;;;;;;5072766;28;20107;-76
2021/08/15 14:05:44;;;;;;;6.45;5.70;;;;;;;;;;5073062;28;20457;-76
2021/08/15 14:08:10;;;;;;;6.82;6.00;;;;;;;;;;5054578;28;20119;-76
2021/08/15 14:10:41;;;;;;;7.97;6.00;;;;;;;;;;5072550;28;20491;-76
2021/08/15 14:13:07;;;;;;;7.03;5.57;;;;;;;;;;5072755;28;20020;-76
2021/08/15 14:15:33;;;;;;;7.10;6.40;;;;;;;;;;5072651;28;20108;-76
2021/08/15 14:17:59;;;;;;;8.38;6.30;;;;;;;;;;5072870;28;20085;-76
2021/08/15 14:20:25;;;;;;;6.68;5.25;;;;;;;;;;5072658;28;20029;-76
2021/08/15 14:22:51;;;;;;;6.25;5.65;;;;;;;;;;5072479;28;20021;-76
2021/08/15 14:25:18;;;;;;;6.78;6.05;;;;;;;;;;5054634;28;20544;-76
2021/08/15 14:27:45;;;;;;;7.57;6.20;;;;;;;;;;5054155;28;20027;-76
2021/08/15 14:30:11;;;;;;;7.15;5.95;;;;;;;;;;5072578;28;20029;-76
2021/08/15 14:32:37;;;;;;;6.70;5.97;;;;;;;;;;5072084;28;20074;-76
2021/08/15 14:35:04;;;;;;;6.78;6.07;;;;;;;;;;5072365;28;20025;-76
2021/08/15 14:37:31;;;;;;;7.28;6.00;;;;;;;;;;5072102;28;20071;-76
2021/08/15 14:39:57;;;;;;;7.68;6.13;;;;;;;;;;5054319;28;20020;-76
2021/08/15 14:42:23;;;;;;;7.95;6.68;;;;;;;;;;5071615;28;20384;-76
2021/08/15 14:44:49;;;;;;;6.82;5.75;;;;;;;;;;5072437;28;20536;-76